createdAt,value
2023-04-04T00:01:22.794Z,2.03
2023-04-04T00:06:22.804Z,1.40
2023-04-04T00:11:22.438Z,1.60
2023-04-04T00:16:20.606Z,2.00
2023-04-04T00:21:19.099Z,1.60
2023-04-04T00:26:18.930Z,2.23
2023-04-04T00:31:18.341Z,1.37
2023-04-04T00:36:17.801Z,1.33
2023-04-04T00:41:17.330Z,1.90
2023-04-04T00:46:19.335Z,2.03
2023-04-04T00:51:18.259Z,1.30
2023-04-04T00:56:17.407Z,1.37
2023-04-04T01:01:17.954Z,1.13
2023-04-04T01:06:17.325Z,1.30
2023-04-04T01:11:16.992Z,1.10
2023-04-04T01:16:17.028Z,1.47
2023-04-04T01:21:17.461Z,2.20
2023-04-04T01:26:17.410Z,1.60
2023-04-04T01:31:23.074Z,2.80
2023-04-04T01:36:33.500Z,2.30
2023-04-04T01:41:35.550Z,2.83
2023-04-04T01:46:37.386Z,2.60
2023-04-04T01:51:37.113Z,2.63
2023-04-04T01:56:37.086Z,1.80
2023-04-04T02:01:35.847Z,2.50
2023-04-04T02:06:34.621Z,1.40
2023-04-04T02:11:33.173Z,2.00
2023-04-04T02:16:34.230Z,2.13
2023-04-04T02:21:32.853Z,1.80
2023-04-04T02:26:31.485Z,2.43
2023-04-04T02:31:30.103Z,1.90
2023-04-04T02:36:30.459Z,1.90
2023-04-04T02:41:29.867Z,1.90
2023-04-04T02:46:28.932Z,1.63
2023-04-04T02:51:35.110Z,2.30
2023-04-04T02:56:34.017Z,1.80
2023-04-04T03:01:32.937Z,1.70
2023-04-04T03:06:36.064Z,1.70
2023-04-04T03:11:34.733Z,2.53
2023-04-04T03:16:34.317Z,1.87
2023-04-04T03:21:32.990Z,2.43
2023-04-04T03:26:32.872Z,2.40
2023-04-04T03:31:31.593Z,1.90
2023-04-04T03:36:29.968Z,2.20
2023-04-04T03:41:29.075Z,1.40
2023-04-04T03:46:29.061Z,2.00
2023-04-04T03:51:28.930Z,1.90
2023-04-04T03:56:27.892Z,2.00
2023-04-04T04:01:26.112Z,2.13
2023-04-04T04:06:26.348Z,2.10
2023-04-04T04:11:24.517Z,2.00
2023-04-04T04:16:23.304Z,2.20
2023-04-04T04:21:23.378Z,2.27
2023-04-04T04:26:24.693Z,2.70
2023-04-04T04:31:23.553Z,4.83
2023-04-04T04:36:24.314Z,4.57
2023-04-04T04:41:44.186Z,2.60
2023-04-04T04:46:43.929Z,3.63
2023-04-04T04:51:46.534Z,2.70
2023-04-04T04:56:48.402Z,3.17
2023-04-04T05:01:46.990Z,2.27
2023-04-04T05:06:47.289Z,1.93
2023-04-04T05:11:45.890Z,2.63
2023-04-04T05:16:47.570Z,2.97
2023-04-04T05:21:48.426Z,2.47
2023-04-04T05:26:58.182Z,3.00
2023-04-04T05:31:58.422Z,2.60
2023-04-04T05:36:56.997Z,3.27
2023-04-04T05:41:55.895Z,3.13
2023-04-04T05:46:55.134Z,3.37
2023-04-04T05:51:56.966Z,3.77
2023-04-04T05:56:56.876Z,3.63
2023-04-04T06:02:28.382Z,3.30
2023-04-04T06:07:33.635Z,2.80
2023-04-04T06:12:32.354Z,4.63
2023-04-04T06:17:31.406Z,4.27
2023-04-04T06:22:29.704Z,4.23
2023-04-04T06:27:30.044Z,2.60
2023-04-04T06:32:32.842Z,2.90
2023-04-04T06:37:32.781Z,2.90
2023-04-04T06:42:50.659Z,2.80
2023-04-04T06:47:51.770Z,2.30
2023-04-04T06:52:50.847Z,3.10
2023-04-04T06:57:50.403Z,1.60
2023-04-04T07:02:49.440Z,2.43
2023-04-04T07:07:47.794Z,2.40
2023-04-04T07:12:46.050Z,2.57
2023-04-04T07:17:46.056Z,1.50
2023-04-04T07:22:44.818Z,1.80
2023-04-04T07:27:43.001Z,1.50
2023-04-04T07:32:41.538Z,1.90
2023-04-04T07:37:41.455Z,1.70
2023-04-04T07:42:45.438Z,1.57
2023-04-04T07:47:45.394Z,2.00
2023-04-04T07:52:52.279Z,1.20
2023-04-04T07:57:50.684Z,1.10
2023-04-04T08:02:54.143Z,1.27
2023-04-04T08:07:53.806Z,2.23
2023-04-04T08:12:53.168Z,1.40
2023-04-04T08:17:52.171Z,1.47
2023-04-04T08:22:50.769Z,1.50
2023-04-04T08:27:50.315Z,1.50
2023-04-04T08:32:50.169Z,1.80
2023-04-04T08:37:48.520Z,1.30
2023-04-04T08:42:48.257Z,1.20
2023-04-04T08:47:50.261Z,1.67
2023-04-04T08:52:49.556Z,1.90
2023-04-04T08:57:48.383Z,1.63
2023-04-04T09:02:58.156Z,1.37
2023-04-04T09:07:57.411Z,1.30
2023-04-04T09:13:08.707Z,1.50
2023-04-04T09:18:15.317Z,1.20
2023-04-04T09:23:14.996Z,1.10
2023-04-04T09:28:13.581Z,1.00
2023-04-04T09:33:15.394Z,1.20
2023-04-04T09:38:14.101Z,1.40
2023-04-04T09:43:14.852Z,1.20
2023-04-04T09:48:14.770Z,1.00
2023-04-04T09:53:18.598Z,1.43
2023-04-04T09:58:18.648Z,1.57
2023-04-04T10:03:19.844Z,1.07
2023-04-04T10:08:19.773Z,1.10
2023-04-04T10:13:26.221Z,1.30
2023-04-04T10:18:27.893Z,1.10
2023-04-04T10:23:27.699Z,1.23
2023-04-04T10:28:27.456Z,1.00
2023-04-04T10:33:34.111Z,0.83
2023-04-04T10:38:40.126Z,1.10
2023-04-04T10:43:43.228Z,1.00
2023-04-04T10:48:44.437Z,1.07
2023-04-04T10:53:43.448Z,0.90
2023-04-04T10:58:42.366Z,1.10
2023-04-04T11:10:32.866Z,1.10
2023-04-04T11:15:48.033Z,0.90
2023-04-04T11:20:49.145Z,0.90
2023-04-04T11:25:56.461Z,0.70
2023-04-04T11:31:27.794Z,0.90
2023-04-04T11:36:52.940Z,1.00
2023-04-04T11:41:55.261Z,1.03
2023-04-04T11:46:57.866Z,1.33
2023-04-04T11:51:56.485Z,0.80
2023-04-04T11:56:56.395Z,1.20
2023-04-04T12:01:56.716Z,1.60
2023-04-04T12:06:58.098Z,1.20
2023-04-04T12:11:58.174Z,1.10
2023-04-04T12:16:59.850Z,0.90
2023-04-04T12:21:59.321Z,0.97
2023-04-04T12:26:59.746Z,0.90
2023-04-04T12:31:59.068Z,0.80
2023-04-04T12:36:58.984Z,0.70
2023-04-04T12:42:00.437Z,0.80
2023-04-04T12:47:01.525Z,1.33
2023-04-04T12:52:04.190Z,0.97
2023-04-04T12:57:06.092Z,0.87
2023-04-04T13:02:09.207Z,1.10
2023-04-04T13:07:21.166Z,1.00
2023-04-04T13:12:20.796Z,1.00
2023-04-04T13:17:19.729Z,0.90
2023-04-04T13:22:18.353Z,1.00
2023-04-04T13:27:16.897Z,0.93
2023-04-04T13:32:17.170Z,1.20
2023-04-04T13:37:15.667Z,0.90
2023-04-04T13:42:14.625Z,1.10
2023-04-04T13:47:13.178Z,0.80
2023-04-04T13:52:13.073Z,0.90
2023-04-04T13:57:11.542Z,1.00
2023-04-04T14:02:10.994Z,0.97
2023-04-04T14:07:09.829Z,0.97
2023-04-04T14:12:10.201Z,0.93
2023-04-04T14:17:08.792Z,1.20
2023-04-04T14:22:07.748Z,0.83
2023-04-04T14:27:06.351Z,0.90
2023-04-04T14:32:06.301Z,0.90
2023-04-04T14:37:05.082Z,1.00
2023-04-04T14:42:03.616Z,0.83
2023-04-04T14:47:02.226Z,0.80
2023-04-04T14:52:02.453Z,1.23
2023-04-04T14:57:02.505Z,1.10
2023-04-04T15:02:01.117Z,1.20
2023-04-04T15:07:03.390Z,0.90
2023-04-04T15:12:03.562Z,1.23
2023-04-04T15:17:02.096Z,1.30
2023-04-04T15:22:01.933Z,1.30
2023-04-04T15:27:00.492Z,1.20
2023-04-04T15:32:00.384Z,1.30
2023-04-04T15:37:02.797Z,1.20
2023-04-04T15:42:01.659Z,1.10
2023-04-04T15:47:01.663Z,1.17
2023-04-04T15:52:00.561Z,1.20
2023-04-04T15:56:59.085Z,1.10
2023-04-04T16:01:57.287Z,1.00
2023-04-04T16:06:56.846Z,1.60
2023-04-04T16:11:56.189Z,0.80
2023-04-04T16:16:54.444Z,1.20
2023-04-04T16:21:53.004Z,1.53
2023-04-04T16:26:52.932Z,1.50
2023-04-04T16:31:54.319Z,1.30
2023-04-04T16:36:52.935Z,1.23
2023-04-04T16:41:53.056Z,1.27
2023-04-04T16:46:51.649Z,1.50
2023-04-04T16:51:50.190Z,1.40
2023-04-04T16:56:48.412Z,1.77
2023-04-04T17:01:49.506Z,1.17
2023-04-04T17:06:48.532Z,0.90
2023-04-04T17:11:47.644Z,1.17
2023-04-04T17:16:47.572Z,0.90
2023-04-04T17:21:47.075Z,1.83
2023-04-04T17:26:48.107Z,1.00
2023-04-04T17:31:49.217Z,1.00
2023-04-04T17:36:48.068Z,1.50
2023-04-04T17:41:47.903Z,1.30
2023-04-04T17:46:47.886Z,1.40
2023-04-04T17:51:46.934Z,9.97
2023-04-04T17:56:47.209Z,1.90
2023-04-04T18:01:48.148Z,2.70
2023-04-04T18:06:46.735Z,2.10
2023-04-04T18:11:45.310Z,5.40
2023-04-04T18:16:43.991Z,6.87
2023-04-04T18:21:43.912Z,3.40
2023-04-04T18:26:42.736Z,6.80
2023-04-04T18:31:41.597Z,3.80
2023-04-04T18:36:39.848Z,5.80
2023-04-04T18:41:40.239Z,2.60
2023-04-04T18:46:39.989Z,4.10
2023-04-04T18:51:38.267Z,3.73
2023-04-04T18:56:38.809Z,3.60
2023-04-04T19:01:40.309Z,2.93
2023-04-04T19:06:41.776Z,4.80
2023-04-04T19:11:39.973Z,4.03
2023-04-04T19:16:41.631Z,9.20
2023-04-04T19:21:39.971Z,3.90
2023-04-04T19:26:38.190Z,4.80
2023-04-04T19:31:37.119Z,2.97
2023-04-04T19:36:38.640Z,3.07
2023-04-04T19:41:37.698Z,3.27
2023-04-04T19:46:36.682Z,2.27
2023-04-04T19:51:50.948Z,2.27
2023-04-04T19:56:51.448Z,1.80
2023-04-04T20:02:00.197Z,2.83
2023-04-04T20:07:01.376Z,2.33
2023-04-04T20:11:59.521Z,2.40
2023-04-04T20:16:58.674Z,2.53
2023-04-04T20:21:57.228Z,1.97
2023-04-04T20:26:59.547Z,1.87
2023-04-04T20:31:59.624Z,2.10
2023-04-04T20:36:58.224Z,2.57
2023-04-04T20:41:58.259Z,2.07
2023-04-04T20:46:58.298Z,1.80
2023-04-04T20:51:56.812Z,2.07
2023-04-04T20:56:56.856Z,1.70
2023-04-04T21:02:01.167Z,1.90
2023-04-04T21:06:59.315Z,1.43
2023-04-04T21:12:00.400Z,2.00
2023-04-04T21:17:00.337Z,1.90
2023-04-04T21:21:58.529Z,2.37
2023-04-04T21:26:57.191Z,2.50
2023-04-04T21:31:56.947Z,2.10
2023-04-04T21:37:01.200Z,1.63
2023-04-04T21:42:01.782Z,1.80
2023-04-04T21:47:00.577Z,2.17
2023-04-04T21:52:00.458Z,1.83
2023-04-04T21:56:58.597Z,2.33
2023-04-04T22:01:57.455Z,2.20
2023-04-04T22:06:55.931Z,2.13
2023-04-04T22:11:59.283Z,2.13
2023-04-04T22:16:58.845Z,2.20
2023-04-04T22:21:58.966Z,2.93
2023-04-04T22:26:58.814Z,3.40
2023-04-04T22:31:57.316Z,3.33
2023-04-04T22:36:59.676Z,2.90
2023-04-04T22:41:59.452Z,2.90
2023-04-04T22:46:58.788Z,2.90
2023-04-04T22:51:57.270Z,2.77
2023-04-04T22:56:55.402Z,2.70
2023-04-04T23:01:55.242Z,2.40
2023-04-04T23:06:53.798Z,2.60
2023-04-04T23:11:52.420Z,2.00
2023-04-04T23:16:52.895Z,2.30
2023-04-04T23:21:53.162Z,2.10
2023-04-04T23:26:51.661Z,2.00
2023-04-04T23:31:49.804Z,2.23
2023-04-04T23:36:48.653Z,2.40
2023-04-04T23:41:48.488Z,2.13
2023-04-04T23:46:47.031Z,2.33
2023-04-04T23:51:45.438Z,2.50
2023-04-04T23:56:44.298Z,2.80
